sensor_id;sensor_type;location;lat;lon;timestamp;P1;durP1;ratioP1;P2;durP2;ratioP2
25023;SDS011;13033;50.936;5.334;2023-05-29T00:01:32;14.48;;;5.70;;
25023;SDS011;13033;50.936;5.334;2023-05-29T00:03:59;12.02;;;6.32;;
25023;SDS011;13033;50.936;5.334;2023-05-29T00:06:24;12.90;;;6.50;;
25023;SDS011;13033;50.936;5.334;2023-05-29T00:08:50;13.20;;;5.93;;
25023;SDS011;13033;50.936;5.334;2023-05-29T00:11:16;13.98;;;6.45;;
25023;SDS011;13033;50.936;5.334;2023-05-29T00:13:41;11.65;;;6.10;;
25023;SDS011;13033;50.936;5.334;2023-05-29T00:16:07;12.35;;;6.22;;
25023;SDS011;13033;50.936;5.334;2023-05-29T00:18:34;14.50;;;6.45;;
25023;SDS011;13033;50.936;5.334;2023-05-29T00:21:00;16.27;;;6.57;;
25023;SDS011;13033;50.936;5.334;2023-05-29T00:23:27;13.73;;;6.60;;
25023;SDS011;13033;50.936;5.334;2023-05-29T00:25:52;12.60;;;6.70;;
25023;SDS011;13033;50.936;5.334;2023-05-29T00:28:18;12.40;;;6.35;;
25023;SDS011;13033;50.936;5.334;2023-05-29T00:30:44;13.63;;;6.65;;
25023;SDS011;13033;50.936;5.334;2023-05-29T00:33:10;14.60;;;6.78;;
25023;SDS011;13033;50.936;5.334;2023-05-29T00:35:36;11.82;;;6.45;;
25023;SDS011;13033;50.936;5.334;2023-05-29T00:38:01;14.48;;;6.32;;
25023;SDS011;13033;50.936;5.334;2023-05-29T00:40:27;13.05;;;6.50;;
25023;SDS011;13033;50.936;5.334;2023-05-29T00:42:53;12.65;;;6.30;;
25023;SDS011;13033;50.936;5.334;2023-05-29T00:45:18;12.10;;;7.13;;
25023;SDS011;13033;50.936;5.334;2023-05-29T00:47:44;13.07;;;7.07;;
25023;SDS011;13033;50.936;5.334;2023-05-29T00:50:10;14.70;;;7.22;;
25023;SDS011;13033;50.936;5.334;2023-05-29T00:52:39;12.45;;;7.10;;
25023;SDS011;13033;50.936;5.334;2023-05-29T00:55:09;12.90;;;6.78;;
25023;SDS011;13033;50.936;5.334;2023-05-29T00:57:35;13.38;;;7.32;;
25023;SDS011;13033;50.936;5.334;2023-05-29T01:00:04;15.75;;;7.38;;
25023;SDS011;13033;50.936;5.334;2023-05-29T01:02:34;15.55;;;7.90;;
25023;SDS011;13033;50.936;5.334;2023-05-29T01:05:01;11.07;;;7.13;;
25023;SDS011;13033;50.936;5.334;2023-05-29T01:07:27;14.00;;;7.63;;
25023;SDS011;13033;50.936;5.334;2023-05-29T01:09:53;15.80;;;7.10;;
25023;SDS011;13033;50.936;5.334;2023-05-29T01:18:07;12.73;;;7.10;;
25023;SDS011;13033;50.936;5.334;2023-05-29T01:20:35;15.60;;;6.93;;
25023;SDS011;13033;50.936;5.334;2023-05-29T01:28:42;18.77;;;8.30;;
25023;SDS011;13033;50.936;5.334;2023-05-29T01:31:12;16.13;;;8.13;;
25023;SDS011;13033;50.936;5.334;2023-05-29T01:33:39;18.67;;;8.15;;
25023;SDS011;13033;50.936;5.334;2023-05-29T01:36:06;14.40;;;8.05;;
25023;SDS011;13033;50.936;5.334;2023-05-29T01:38:33;16.02;;;8.23;;
25023;SDS011;13033;50.936;5.334;2023-05-29T01:40:59;15.38;;;8.48;;
25023;SDS011;13033;50.936;5.334;2023-05-29T01:43:25;15.65;;;8.90;;
25023;SDS011;13033;50.936;5.334;2023-05-29T01:45:51;16.83;;;8.48;;
25023;SDS011;13033;50.936;5.334;2023-05-29T01:48:17;14.90;;;7.82;;
25023;SDS011;13033;50.936;5.334;2023-05-29T01:50:43;13.75;;;8.55;;
25023;SDS011;13033;50.936;5.334;2023-05-29T01:53:11;16.80;;;8.98;;
25023;SDS011;13033;50.936;5.334;2023-05-29T01:55:36;17.25;;;9.32;;
25023;SDS011;13033;50.936;5.334;2023-05-29T01:58:02;15.30;;;9.02;;
25023;SDS011;13033;50.936;5.334;2023-05-29T02:00:29;20.88;;;9.20;;
25023;SDS011;13033;50.936;5.334;2023-05-29T02:02:55;24.00;;;9.50;;
25023;SDS011;13033;50.936;5.334;2023-05-29T02:05:21;21.30;;;9.70;;
25023;SDS011;13033;50.936;5.334;2023-05-29T02:07:46;16.40;;;8.90;;
25023;SDS011;13033;50.936;5.334;2023-05-29T02:10:12;14.55;;;8.70;;
25023;SDS011;13033;50.936;5.334;2023-05-29T02:12:38;18.98;;;8.52;;
25023;SDS011;13033;50.936;5.334;2023-05-29T02:15:03;17.60;;;8.43;;
25023;SDS011;13033;50.936;5.334;2023-05-29T02:17:29;18.23;;;9.25;;
25023;SDS011;13033;50.936;5.334;2023-05-29T02:19:55;15.75;;;8.85;;
25023;SDS011;13033;50.936;5.334;2023-05-29T02:22:21;22.90;;;9.20;;
25023;SDS011;13033;50.936;5.334;2023-05-29T02:24:47;17.58;;;8.43;;
25023;SDS011;13033;50.936;5.334;2023-05-29T02:27:12;19.27;;;8.52;;
25023;SDS011;13033;50.936;5.334;2023-05-29T02:29:38;18.17;;;9.00;;
25023;SDS011;13033;50.936;5.334;2023-05-29T02:32:04;18.02;;;8.57;;
25023;SDS011;13033;50.936;5.334;2023-05-29T02:34:30;18.02;;;8.63;;
25023;SDS011;13033;50.936;5.334;2023-05-29T02:36:55;14.98;;;7.78;;
25023;SDS011;13033;50.936;5.334;2023-05-29T02:39:21;19.67;;;8.48;;
25023;SDS011;13033;50.936;5.334;2023-05-29T02:41:47;19.15;;;8.38;;
25023;SDS011;13033;50.936;5.334;2023-05-29T02:44:13;18.52;;;8.38;;
25023;SDS011;13033;50.936;5.334;2023-05-29T02:46:38;18.02;;;7.25;;
25023;SDS011;13033;50.936;5.334;2023-05-29T02:49:04;20.45;;;7.28;;
25023;SDS011;13033;50.936;5.334;2023-05-29T02:51:30;19.80;;;7.57;;
25023;SDS011;13033;50.936;5.334;2023-05-29T02:53:57;16.70;;;6.72;;
25023;SDS011;13033;50.936;5.334;2023-05-29T02:56:23;18.67;;;6.80;;
25023;SDS011;13033;50.936;5.334;2023-05-29T02:58:52;13.40;;;5.72;;
25023;SDS011;13033;50.936;5.334;2023-05-29T03:01:17;16.65;;;6.07;;
25023;SDS011;13033;50.936;5.334;2023-05-29T03:03:43;19.77;;;6.22;;
25023;SDS011;13033;50.936;5.334;2023-05-29T03:06:09;18.25;;;5.88;;
25023;SDS011;13033;50.936;5.334;2023-05-29T03:08:35;18.05;;;5.38;;
25023;SDS011;13033;50.936;5.334;2023-05-29T03:11:05;18.67;;;5.65;;
25023;SDS011;13033;50.936;5.334;2023-05-29T03:13:32;17.80;;;5.55;;
25023;SDS011;13033;50.936;5.334;2023-05-29T03:15:59;22.08;;;5.70;;
25023;SDS011;13033;50.936;5.334;2023-05-29T03:18:25;15.75;;;4.90;;
25023;SDS011;13033;50.936;5.334;2023-05-29T03:20:50;18.67;;;5.57;;
25023;SDS011;13033;50.936;5.334;2023-05-29T03:23:16;17.25;;;5.75;;
25023;SDS011;13033;50.936;5.334;2023-05-29T03:25:41;17.67;;;5.03;;
25023;SDS011;13033;50.936;5.334;2023-05-29T03:28:07;16.48;;;5.18;;
25023;SDS011;13033;50.936;5.334;2023-05-29T03:30:33;18.27;;;5.43;;
25023;SDS011;13033;50.936;5.334;2023-05-29T03:32:59;15.95;;;4.57;;
25023;SDS011;13033;50.936;5.334;2023-05-29T03:35:28;18.83;;;4.80;;
25023;SDS011;13033;50.936;5.334;2023-05-29T03:37:54;15.85;;;4.72;;
25023;SDS011;13033;50.936;5.334;2023-05-29T03:40:20;13.68;;;4.53;;
25023;SDS011;13033;50.936;5.334;2023-05-29T03:42:46;15.15;;;4.47;;
25023;SDS011;13033;50.936;5.334;2023-05-29T03:45:11;14.30;;;4.20;;
25023;SDS011;13033;50.936;5.334;2023-05-29T03:47:37;19.15;;;5.00;;
25023;SDS011;13033;50.936;5.334;2023-05-29T03:50:03;14.73;;;3.92;;
25023;SDS011;13033;50.936;5.334;2023-05-29T03:52:28;18.45;;;5.15;;
25023;SDS011;13033;50.936;5.334;2023-05-29T03:54:54;13.00;;;3.92;;
25023;SDS011;13033;50.936;5.334;2023-05-29T03:57:20;17.17;;;4.80;;
25023;SDS011;13033;50.936;5.334;2023-05-29T03:59:45;15.63;;;4.80;;
25023;SDS011;13033;50.936;5.334;2023-05-29T04:02:11;16.38;;;4.63;;
25023;SDS011;13033;50.936;5.334;2023-05-29T04:04:37;14.68;;;4.50;;
25023;SDS011;13033;50.936;5.334;2023-05-29T04:07:04;21.15;;;4.57;;
25023;SDS011;13033;50.936;5.334;2023-05-29T04:09:32;19.40;;;4.05;;
25023;SDS011;13033;50.936;5.334;2023-05-29T04:11:58;15.30;;;4.05;;
25023;SDS011;13033;50.936;5.334;2023-05-29T04:14:24;22.33;;;4.63;;
25023;SDS011;13033;50.936;5.334;2023-05-29T04:16:50;15.00;;;4.03;;
25023;SDS011;13033;50.936;5.334;2023-05-29T04:19:16;13.93;;;3.67;;
25023;SDS011;13033;50.936;5.334;2023-05-29T04:21:41;14.02;;;3.33;;
25023;SDS011;13033;50.936;5.334;2023-05-29T04:24:07;12.32;;;4.15;;
25023;SDS011;13033;50.936;5.334;2023-05-29T04:26:33;14.68;;;4.03;;
25023;SDS011;13033;50.936;5.334;2023-05-29T04:28:58;17.13;;;3.83;;
25023;SDS011;13033;50.936;5.334;2023-05-29T04:31:24;18.25;;;3.83;;
25023;SDS011;13033;50.936;5.334;2023-05-29T04:33:51;14.00;;;3.58;;
25023;SDS011;13033;50.936;5.334;2023-05-29T04:36:23;16.60;;;4.15;;
25023;SDS011;13033;50.936;5.334;2023-05-29T04:38:52;16.60;;;4.20;;
25023;SDS011;13033;50.936;5.334;2023-05-29T04:41:19;16.75;;;4.15;;
25023;SDS011;13033;50.936;5.334;2023-05-29T04:43:48;15.80;;;4.15;;
25023;SDS011;13033;50.936;5.334;2023-05-29T04:46:16;14.10;;;3.70;;
25023;SDS011;13033;50.936;5.334;2023-05-29T04:48:42;17.52;;;4.72;;
25023;SDS011;13033;50.936;5.334;2023-05-29T04:51:08;17.00;;;4.15;;
25023;SDS011;13033;50.936;5.334;2023-05-29T04:53:38;19.17;;;4.55;;
25023;SDS011;13033;50.936;5.334;2023-05-29T04:56:06;18.38;;;4.07;;
25023;SDS011;13033;50.936;5.334;2023-05-29T04:58:32;17.00;;;3.92;;
25023;SDS011;13033;50.936;5.334;2023-05-29T05:00:57;17.30;;;4.18;;
25023;SDS011;13033;50.936;5.334;2023-05-29T05:03:24;17.00;;;3.75;;
25023;SDS011;13033;50.936;5.334;2023-05-29T05:05:50;21.95;;;4.30;;
25023;SDS011;13033;50.936;5.334;2023-05-29T05:08:16;14.70;;;3.83;;
25023;SDS011;13033;50.936;5.334;2023-05-29T05:10:42;23.23;;;4.25;;
25023;SDS011;13033;50.936;5.334;2023-05-29T05:13:08;21.95;;;4.20;;
25023;SDS011;13033;50.936;5.334;2023-05-29T05:15:36;19.73;;;4.47;;
25023;SDS011;13033;50.936;5.334;2023-05-29T05:18:01;17.00;;;3.97;;
25023;SDS011;13033;50.936;5.334;2023-05-29T05:20:27;19.73;;;4.05;;
25023;SDS011;13033;50.936;5.334;2023-05-29T05:22:53;20.00;;;4.03;;
25023;SDS011;13033;50.936;5.334;2023-05-29T05:25:18;15.52;;;4.07;;
25023;SDS011;13033;50.936;5.334;2023-05-29T05:27:44;16.15;;;4.03;;
25023;SDS011;13033;50.936;5.334;2023-05-29T05:30:10;14.48;;;4.35;;
25023;SDS011;13033;50.936;5.334;2023-05-29T05:32:36;19.65;;;3.75;;
25023;SDS011;13033;50.936;5.334;2023-05-29T05:35:01;17.40;;;4.40;;
25023;SDS011;13033;50.936;5.334;2023-05-29T05:37:28;24.00;;;4.97;;
25023;SDS011;13033;50.936;5.334;2023-05-29T05:39:54;16.50;;;3.65;;
25023;SDS011;13033;50.936;5.334;2023-05-29T05:42:19;16.73;;;4.05;;
25023;SDS011;13033;50.936;5.334;2023-05-29T05:44:45;16.75;;;4.13;;
25023;SDS011;13033;50.936;5.334;2023-05-29T05:47:11;19.08;;;4.38;;
25023;SDS011;13033;50.936;5.334;2023-05-29T05:49:37;18.13;;;4.57;;
25023;SDS011;13033;50.936;5.334;2023-05-29T05:52:03;18.30;;;4.03;;
25023;SDS011;13033;50.936;5.334;2023-05-29T05:54:28;14.52;;;4.28;;
25023;SDS011;13033;50.936;5.334;2023-05-29T05:56:54;19.75;;;4.22;;
25023;SDS011;13033;50.936;5.334;2023-05-29T05:59:20;15.05;;;4.30;;
25023;SDS011;13033;50.936;5.334;2023-05-29T06:01:45;21.58;;;4.93;;
25023;SDS011;13033;50.936;5.334;2023-05-29T06:04:11;13.75;;;4.13;;
25023;SDS011;13033;50.936;5.334;2023-05-29T06:06:37;18.33;;;4.10;;
25023;SDS011;13033;50.936;5.334;2023-05-29T06:09:02;17.90;;;3.78;;
25023;SDS011;13033;50.936;5.334;2023-05-29T06:11:29;19.13;;;4.25;;
25023;SDS011;13033;50.936;5.334;2023-05-29T06:13:55;21.23;;;4.30;;
25023;SDS011;13033;50.936;5.334;2023-05-29T06:16:21;15.68;;;4.45;;
25023;SDS011;13033;50.936;5.334;2023-05-29T06:18:46;16.92;;;4.15;;
25023;SDS011;13033;50.936;5.334;2023-05-29T06:21:12;14.63;;;3.80;;
25023;SDS011;13033;50.936;5.334;2023-05-29T06:23:38;17.67;;;3.72;;
25023;SDS011;13033;50.936;5.334;2023-05-29T06:26:04;13.65;;;4.40;;
25023;SDS011;13033;50.936;5.334;2023-05-29T06:28:30;16.17;;;3.92;;
25023;SDS011;13033;50.936;5.334;2023-05-29T06:30:56;20.50;;;4.55;;
25023;SDS011;13033;50.936;5.334;2023-05-29T06:33:21;16.67;;;4.15;;
25023;SDS011;13033;50.936;5.334;2023-05-29T06:35:47;21.15;;;4.28;;
25023;SDS011;13033;50.936;5.334;2023-05-29T06:38:13;16.88;;;4.15;;
25023;SDS011;13033;50.936;5.334;2023-05-29T06:40:40;14.48;;;3.92;;
25023;SDS011;13033;50.936;5.334;2023-05-29T06:43:05;13.00;;;3.90;;
25023;SDS011;13033;50.936;5.334;2023-05-29T06:45:31;18.38;;;4.63;;
25023;SDS011;13033;50.936;5.334;2023-05-29T06:47:57;15.57;;;4.15;;
25023;SDS011;13033;50.936;5.334;2023-05-29T06:50:22;17.27;;;3.72;;
25023;SDS011;13033;50.936;5.334;2023-05-29T06:52:48;16.65;;;3.92;;
25023;SDS011;13033;50.936;5.334;2023-05-29T06:55:13;16.02;;;3.92;;
25023;SDS011;13033;50.936;5.334;2023-05-29T06:57:39;17.40;;;3.85;;
25023;SDS011;13033;50.936;5.334;2023-05-29T07:00:05;15.30;;;4.20;;
25023;SDS011;13033;50.936;5.334;2023-05-29T07:02:32;17.27;;;3.85;;
25023;SDS011;13033;50.936;5.334;2023-05-29T07:04:58;17.17;;;4.13;;
25023;SDS011;13033;50.936;5.334;2023-05-29T07:07:23;15.10;;;4.53;;
25023;SDS011;13033;50.936;5.334;2023-05-29T07:09:49;17.77;;;4.20;;
25023;SDS011;13033;50.936;5.334;2023-05-29T07:12:15;12.73;;;3.90;;
25023;SDS011;13033;50.936;5.334;2023-05-29T07:14:41;12.82;;;3.65;;
25023;SDS011;13033;50.936;5.334;2023-05-29T07:17:06;20.15;;;4.70;;
25023;SDS011;13033;50.936;5.334;2023-05-29T07:19:32;16.65;;;4.15;;
25023;SDS011;13033;50.936;5.334;2023-05-29T07:21:59;20.58;;;4.85;;
25023;SDS011;13033;50.936;5.334;2023-05-29T07:24:25;14.60;;;4.10;;
25023;SDS011;13033;50.936;5.334;2023-05-29T07:26:51;16.95;;;4.57;;
25023;SDS011;13033;50.936;5.334;2023-05-29T07:29:17;15.20;;;3.97;;
25023;SDS011;13033;50.936;5.334;2023-05-29T07:31:45;16.02;;;4.40;;
25023;SDS011;13033;50.936;5.334;2023-05-29T07:34:11;13.23;;;3.60;;
25023;SDS011;13033;50.936;5.334;2023-05-29T07:36:49;15.30;;;4.40;;
25023;SDS011;13033;50.936;5.334;2023-05-29T07:39:28;14.98;;;4.40;;
25023;SDS011;13033;50.936;5.334;2023-05-29T07:41:54;16.33;;;3.97;;
25023;SDS011;13033;50.936;5.334;2023-05-29T07:44:20;13.88;;;3.70;;
25023;SDS011;13033;50.936;5.334;2023-05-29T07:46:46;16.83;;;4.05;;
25023;SDS011;13033;50.936;5.334;2023-05-29T07:49:12;15.45;;;3.72;;
25023;SDS011;13033;50.936;5.334;2023-05-29T07:51:39;18.52;;;4.05;;
25023;SDS011;13033;50.936;5.334;2023-05-29T07:54:05;18.27;;;4.15;;
25023;SDS011;13033;50.936;5.334;2023-05-29T07:56:31;16.33;;;3.65;;
25023;SDS011;13033;50.936;5.334;2023-05-29T07:58:58;15.30;;;3.65;;
25023;SDS011;13033;50.936;5.334;2023-05-29T08:01:25;11.88;;;3.88;;
25023;SDS011;13033;50.936;5.334;2023-05-29T08:03:51;13.63;;;3.95;;
25023;SDS011;13033;50.936;5.334;2023-05-29T08:06:17;12.93;;;3.55;;
25023;SDS011;13033;50.936;5.334;2023-05-29T08:08:43;11.45;;;3.78;;
25023;SDS011;13033;50.936;5.334;2023-05-29T08:11:09;15.25;;;4.03;;
25023;SDS011;13033;50.936;5.334;2023-05-29T08:13:35;17.30;;;4.60;;
25023;SDS011;13033;50.936;5.334;2023-05-29T08:16:01;16.08;;;4.25;;
25023;SDS011;13033;50.936;5.334;2023-05-29T08:18:29;19.95;;;4.90;;
25023;SDS011;13033;50.936;5.334;2023-05-29T08:20:56;17.52;;;5.00;;
25023;SDS011;13033;50.936;5.334;2023-05-29T08:23:22;13.88;;;3.80;;
25023;SDS011;13033;50.936;5.334;2023-05-29T08:25:47;16.88;;;3.90;;
25023;SDS011;13033;50.936;5.334;2023-05-29T08:28:16;13.27;;;4.10;;
25023;SDS011;13033;50.936;5.334;2023-05-29T08:30:42;19.15;;;4.70;;
25023;SDS011;13033;50.936;5.334;2023-05-29T08:33:07;13.77;;;4.20;;
25023;SDS011;13033;50.936;5.334;2023-05-29T08:35:33;16.60;;;4.22;;
25023;SDS011;13033;50.936;5.334;2023-05-29T08:37:59;16.77;;;4.20;;
25023;SDS011;13033;50.936;5.334;2023-05-29T08:40:25;18.17;;;4.13;;
25023;SDS011;13033;50.936;5.334;2023-05-29T08:42:53;10.40;;;3.63;;
25023;SDS011;13033;50.936;5.334;2023-05-29T08:45:22;15.85;;;4.07;;
25023;SDS011;13033;50.936;5.334;2023-05-29T08:47:53;11.90;;;4.22;;
25023;SDS011;13033;50.936;5.334;2023-05-29T08:50:19;18.20;;;4.43;;
25023;SDS011;13033;50.936;5.334;2023-05-29T08:52:46;18.95;;;4.90;;
25023;SDS011;13033;50.936;5.334;2023-05-29T08:55:12;12.77;;;3.83;;
25023;SDS011;13033;50.936;5.334;2023-05-29T08:57:38;13.18;;;4.30;;
25023;SDS011;13033;50.936;5.334;2023-05-29T09:00:05;16.17;;;4.40;;
25023;SDS011;13033;50.936;5.334;2023-05-29T09:05:09;14.15;;;4.63;;
25023;SDS011;13033;50.936;5.334;2023-05-29T09:07:38;15.68;;;4.38;;
25023;SDS011;13033;50.936;5.334;2023-05-29T09:10:08;14.05;;;4.43;;
25023;SDS011;13033;50.936;5.334;2023-05-29T09:12:34;17.50;;;4.82;;
25023;SDS011;13033;50.936;5.334;2023-05-29T09:15:00;16.70;;;4.90;;
25023;SDS011;13033;50.936;5.334;2023-05-29T09:17:30;13.68;;;4.00;;
25023;SDS011;13033;50.936;5.334;2023-05-29T09:19:57;16.73;;;4.43;;
25023;SDS011;13033;50.936;5.334;2023-05-29T09:22:23;17.35;;;4.45;;
25023;SDS011;13033;50.936;5.334;2023-05-29T09:24:48;12.43;;;3.95;;
25023;SDS011;13033;50.936;5.334;2023-05-29T09:27:15;13.98;;;4.00;;
25023;SDS011;13033;50.936;5.334;2023-05-29T09:29:42;19.00;;;4.35;;
25023;SDS011;13033;50.936;5.334;2023-05-29T09:32:10;13.93;;;4.28;;
25023;SDS011;13033;50.936;5.334;2023-05-29T09:34:37;15.25;;;4.55;;
25023;SDS011;13033;50.936;5.334;2023-05-29T09:37:07;13.20;;;4.03;;
25023;SDS011;13033;50.936;5.334;2023-05-29T09:39:34;18.60;;;4.20;;
25023;SDS011;13033;50.936;5.334;2023-05-29T09:42:06;13.63;;;4.43;;
25023;SDS011;13033;50.936;5.334;2023-05-29T09:44:32;12.60;;;4.15;;
25023;SDS011;13033;50.936;5.334;2023-05-29T09:46:58;14.98;;;4.20;;
25023;SDS011;13033;50.936;5.334;2023-05-29T09:49:25;13.43;;;4.32;;
25023;SDS011;13033;50.936;5.334;2023-05-29T09:51:55;14.77;;;4.10;;
25023;SDS011;13033;50.936;5.334;2023-05-29T09:54:21;19.92;;;4.40;;
25023;SDS011;13033;50.936;5.334;2023-05-29T09:56:47;11.07;;;4.00;;
25023;SDS011;13033;50.936;5.334;2023-05-29T09:59:13;14.15;;;3.85;;
25023;SDS011;13033;50.936;5.334;2023-05-29T10:01:41;15.63;;;4.18;;
25023;SDS011;13033;50.936;5.334;2023-05-29T10:04:09;16.50;;;4.13;;
25023;SDS011;13033;50.936;5.334;2023-05-29T10:06:41;15.38;;;3.70;;
25023;SDS011;13033;50.936;5.334;2023-05-29T10:09:15;10.40;;;3.97;;
25023;SDS011;13033;50.936;5.334;2023-05-29T10:11:44;14.35;;;3.55;;
25023;SDS011;13033;50.936;5.334;2023-05-29T10:14:19;14.23;;;4.25;;
25023;SDS011;13033;50.936;5.334;2023-05-29T10:16:48;11.07;;;3.88;;
25023;SDS011;13033;50.936;5.334;2023-05-29T10:19:24;9.60;;;3.22;;
25023;SDS011;13033;50.936;5.334;2023-05-29T10:21:52;14.13;;;3.47;;
25023;SDS011;13033;50.936;5.334;2023-05-29T10:24:19;10.52;;;3.42;;
25023;SDS011;13033;50.936;5.334;2023-05-29T10:26:47;13.95;;;3.63;;
25023;SDS011;13033;50.936;5.334;2023-05-29T10:32:01;14.00;;;3.95;;
25023;SDS011;13033;50.936;5.334;2023-05-29T10:35:08;12.65;;;3.40;;
25023;SDS011;13033;50.936;5.334;2023-05-29T10:40:11;14.90;;;3.40;;
25023;SDS011;13033;50.936;5.334;2023-05-29T10:45:04;14.82;;;4.10;;
25023;SDS011;13033;50.936;5.334;2023-05-29T10:47:30;15.65;;;4.53;;
25023;SDS011;13033;50.936;5.334;2023-05-29T10:50:04;13.48;;;3.63;;
25023;SDS011;13033;50.936;5.334;2023-05-29T10:52:31;12.77;;;3.72;;
25023;SDS011;13033;50.936;5.334;2023-05-29T10:55:00;14.25;;;3.63;;
25023;SDS011;13033;50.936;5.334;2023-05-29T10:57:29;12.05;;;3.22;;
25023;SDS011;13033;50.936;5.334;2023-05-29T11:00:05;14.77;;;3.90;;
25023;SDS011;13033;50.936;5.334;2023-05-29T11:02:37;14.18;;;3.90;;
25023;SDS011;13033;50.936;5.334;2023-05-29T11:05:25;12.57;;;4.10;;
25023;SDS011;13033;50.936;5.334;2023-05-29T11:13:23;9.13;;;3.47;;
25023;SDS011;13033;50.936;5.334;2023-05-29T11:18:40;10.38;;;3.13;;
25023;SDS011;13033;50.936;5.334;2023-05-29T11:21:12;10.38;;;3.60;;
25023;SDS011;13033;50.936;5.334;2023-05-29T11:23:50;12.38;;;3.78;;
25023;SDS011;13033;50.936;5.334;2023-05-29T11:26:19;14.85;;;3.30;;
25023;SDS011;13033;50.936;5.334;2023-05-29T11:28:47;7.88;;;3.45;;
25023;SDS011;13033;50.936;5.334;2023-05-29T11:31:14;12.75;;;3.38;;
25023;SDS011;13033;50.936;5.334;2023-05-29T11:33:43;12.25;;;3.28;;
25023;SDS011;13033;50.936;5.334;2023-05-29T11:36:16;11.15;;;3.20;;
25023;SDS011;13033;50.936;5.334;2023-05-29T11:38:44;12.85;;;3.70;;
25023;SDS011;13033;50.936;5.334;2023-05-29T11:41:10;9.30;;;3.30;;
25023;SDS011;13033;50.936;5.334;2023-05-29T11:43:35;12.75;;;5.05;;
25023;SDS011;13033;50.936;5.334;2023-05-29T11:46:01;11.15;;;3.10;;
25023;SDS011;13033;50.936;5.334;2023-05-29T11:48:27;8.45;;;3.30;;
25023;SDS011;13033;50.936;5.334;2023-05-29T11:50:53;14.85;;;3.58;;
25023;SDS011;13033;50.936;5.334;2023-05-29T11:53:19;9.43;;;2.95;;
25023;SDS011;13033;50.936;5.334;2023-05-29T11:55:44;12.30;;;3.38;;
25023;SDS011;13033;50.936;5.334;2023-05-29T11:58:10;8.57;;;3.50;;
25023;SDS011;13033;50.936;5.334;2023-05-29T12:00:37;7.20;;;3.17;;
25023;SDS011;13033;50.936;5.334;2023-05-29T12:03:04;8.20;;;3.38;;
25023;SDS011;13033;50.936;5.334;2023-05-29T12:05:31;9.43;;;3.35;;
25023;SDS011;13033;50.936;5.334;2023-05-29T12:08:10;11.10;;;3.45;;
25023;SDS011;13033;50.936;5.334;2023-05-29T12:10:36;12.40;;;3.67;;
25023;SDS011;13033;50.936;5.334;2023-05-29T12:13:02;7.85;;;3.08;;
25023;SDS011;13033;50.936;5.334;2023-05-29T12:15:28;7.88;;;3.17;;
25023;SDS011;13033;50.936;5.334;2023-05-29T12:17:54;10.95;;;3.10;;
25023;SDS011;13033;50.936;5.334;2023-05-29T12:20:24;12.23;;;3.35;;
25023;SDS011;13033;50.936;5.334;2023-05-29T12:22:52;9.90;;;3.60;;
25023;SDS011;13033;50.936;5.334;2023-05-29T12:25:23;9.60;;;2.88;;
25023;SDS011;13033;50.936;5.334;2023-05-29T12:27:49;9.55;;;3.10;;
25023;SDS011;13033;50.936;5.334;2023-05-29T12:32:44;8.80;;;3.03;;
25023;SDS011;13033;50.936;5.334;2023-05-29T12:37:47;8.82;;;3.60;;
25023;SDS011;13033;50.936;5.334;2023-05-29T12:42:52;15.00;;;4.00;;
25023;SDS011;13033;50.936;5.334;2023-05-29T12:45:26;25.33;;;11.40;;
25023;SDS011;13033;50.936;5.334;2023-05-29T12:47:57;10.63;;;3.25;;
25023;SDS011;13033;50.936;5.334;2023-05-29T12:50:27;12.95;;;3.83;;
25023;SDS011;13033;50.936;5.334;2023-05-29T12:53:02;11.88;;;3.22;;
25023;SDS011;13033;50.936;5.334;2023-05-29T12:55:30;14.35;;;3.28;;
25023;SDS011;13033;50.936;5.334;2023-05-29T12:58:11;11.27;;;3.08;;
25023;SDS011;13033;50.936;5.334;2023-05-29T13:00:38;11.95;;;3.03;;
25023;SDS011;13033;50.936;5.334;2023-05-29T13:03:07;9.77;;;3.50;;
25023;SDS011;13033;50.936;5.334;2023-05-29T13:05:34;11.73;;;3.20;;
25023;SDS011;13033;50.936;5.334;2023-05-29T13:08:00;13.65;;;3.50;;
25023;SDS011;13033;50.936;5.334;2023-05-29T13:10:26;12.60;;;3.83;;
25023;SDS011;13033;50.936;5.334;2023-05-29T13:12:53;10.63;;;3.38;;
25023;SDS011;13033;50.936;5.334;2023-05-29T13:15:20;16.10;;;3.92;;
25023;SDS011;13033;50.936;5.334;2023-05-29T13:17:50;12.02;;;4.30;;
25023;SDS011;13033;50.936;5.334;2023-05-29T13:20:17;12.35;;;3.65;;
25023;SDS011;13033;50.936;5.334;2023-05-29T13:22:43;13.45;;;3.50;;
25023;SDS011;13033;50.936;5.334;2023-05-29T13:25:11;19.90;;;3.60;;
25023;SDS011;13033;50.936;5.334;2023-05-29T13:27:39;10.40;;;3.70;;
25023;SDS011;13033;50.936;5.334;2023-05-29T13:30:09;13.10;;;3.53;;
25023;SDS011;13033;50.936;5.334;2023-05-29T13:32:36;12.05;;;3.22;;
25023;SDS011;13033;50.936;5.334;2023-05-29T13:35:02;12.02;;;3.78;;
25023;SDS011;13033;50.936;5.334;2023-05-29T13:37:28;13.68;;;4.75;;
25023;SDS011;13033;50.936;5.334;2023-05-29T13:39:54;18.45;;;3.83;;
25023;SDS011;13033;50.936;5.334;2023-05-29T13:42:20;10.85;;;3.25;;
25023;SDS011;13033;50.936;5.334;2023-05-29T13:44:46;13.82;;;3.70;;
25023;SDS011;13033;50.936;5.334;2023-05-29T13:47:13;13.73;;;3.33;;
25023;SDS011;13033;50.936;5.334;2023-05-29T13:49:39;12.05;;;4.25;;
25023;SDS011;13033;50.936;5.334;2023-05-29T13:52:05;10.60;;;3.13;;
25023;SDS011;13033;50.936;5.334;2023-05-29T13:54:31;14.73;;;5.38;;
25023;SDS011;13033;50.936;5.334;2023-05-29T13:57:00;10.32;;;3.85;;
25023;SDS011;13033;50.936;5.334;2023-05-29T13:59:27;19.50;;;7.75;;
25023;SDS011;13033;50.936;5.334;2023-05-29T14:01:52;14.80;;;5.63;;
25023;SDS011;13033;50.936;5.334;2023-05-29T14:04:18;17.92;;;8.05;;
25023;SDS011;13033;50.936;5.334;2023-05-29T14:06:43;10.63;;;3.03;;
25023;SDS011;13033;50.936;5.334;2023-05-29T14:09:10;13.15;;;5.78;;
25023;SDS011;13033;50.936;5.334;2023-05-29T14:11:36;10.32;;;3.67;;
25023;SDS011;13033;50.936;5.334;2023-05-29T14:14:05;10.50;;;4.40;;
25023;SDS011;13033;50.936;5.334;2023-05-29T14:16:31;12.43;;;3.13;;
25023;SDS011;13033;50.936;5.334;2023-05-29T14:18:57;12.70;;;4.20;;
25023;SDS011;13033;50.936;5.334;2023-05-29T14:21:23;9.25;;;3.88;;
25023;SDS011;13033;50.936;5.334;2023-05-29T14:23:49;9.63;;;3.63;;
25023;SDS011;13033;50.936;5.334;2023-05-29T14:26:15;7.75;;;3.33;;
25023;SDS011;13033;50.936;5.334;2023-05-29T14:28:40;11.82;;;3.63;;
25023;SDS011;13033;50.936;5.334;2023-05-29T14:31:06;10.40;;;3.70;;
25023;SDS011;13033;50.936;5.334;2023-05-29T14:33:32;9.10;;;2.85;;
25023;SDS011;13033;50.936;5.334;2023-05-29T14:35:58;8.15;;;3.42;;
25023;SDS011;13033;50.936;5.334;2023-05-29T14:38:24;13.82;;;3.45;;
25023;SDS011;13033;50.936;5.334;2023-05-29T14:40:50;11.50;;;6.95;;
25023;SDS011;13033;50.936;5.334;2023-05-29T14:43:16;27.73;;;10.80;;
25023;SDS011;13033;50.936;5.334;2023-05-29T14:45:42;12.30;;;7.00;;
25023;SDS011;13033;50.936;5.334;2023-05-29T14:48:08;11.30;;;4.68;;
25023;SDS011;13033;50.936;5.334;2023-05-29T14:50:35;11.43;;;3.50;;
25023;SDS011;13033;50.936;5.334;2023-05-29T14:53:01;14.32;;;3.47;;
25023;SDS011;13033;50.936;5.334;2023-05-29T14:55:27;10.93;;;3.42;;
25023;SDS011;13033;50.936;5.334;2023-05-29T14:57:52;10.77;;;3.25;;
25023;SDS011;13033;50.936;5.334;2023-05-29T15:00:18;9.85;;;2.97;;
25023;SDS011;13033;50.936;5.334;2023-05-29T15:02:44;11.65;;;3.13;;
25023;SDS011;13033;50.936;5.334;2023-05-29T15:05:10;11.48;;;3.35;;
25023;SDS011;13033;50.936;5.334;2023-05-29T15:07:35;9.98;;;3.60;;
25023;SDS011;13033;50.936;5.334;2023-05-29T15:10:02;12.07;;;3.35;;
25023;SDS011;13033;50.936;5.334;2023-05-29T15:12:28;10.32;;;3.35;;